Time;durP1;ratioP1;P1;durP2;ratioP2;P2;SDS_P1;SDS_P2;PMS_P1;PMS_P2;Temp;Humidity;BMP_temperature;BMP_pressure;BME280_temperature;BME280_humidity;BME280_pressure;Samples;Min_cycle;Max_cycle;Signal;HPM_P1;HPM_P2
2022/06/09 00:00:22;;;;;;;6.30;2.78;;;15.30;99.90;;;;;;5003048;28;20080;-74
2022/06/09 00:02:53;;;;;;;12.88;3.55;;;15.20;99.90;;;;;;5021974;28;20493;-74
2022/06/09 00:05:20;;;;;;;7.38;3.65;;;15.20;99.90;;;;;;5021658;28;20040;-74
2022/06/09 00:07:50;;;;;;;5.22;2.97;;;15.10;99.90;;;;;;5021465;28;20045;-76
2022/06/09 00:10:24;;;;;;;6.63;3.00;;;15.10;99.90;;;;;;5021832;28;20022;-75
2022/06/09 00:12:50;;;;;;;8.43;3.60;;;15.10;99.90;;;;;;5021764;28;20026;-75
2022/06/09 00:15:16;;;;;;;10.48;4.47;;;15.00;99.90;;;;;;5021062;28;20033;-74
2022/06/09 00:17:44;;;;;;;5.97;3.70;;;15.10;99.90;;;;;;5021649;28;20128;-75
2022/06/09 00:20:11;;;;;;;7.47;3.78;;;15.00;99.90;;;;;;5021176;28;20584;-74
2022/06/09 00:22:37;;;;;;;7.45;3.83;;;15.00;99.90;;;;;;5023871;28;20058;-73
2022/06/09 00:25:04;;;;;;;8.18;4.85;;;15.10;99.90;;;;;;5024123;28;20382;-73
2022/06/09 00:27:30;;;;;;;8.60;4.22;;;15.00;99.90;;;;;;5024982;28;20028;-73
2022/06/09 00:29:56;;;;;;;11.15;4.60;;;15.10;99.90;;;;;;5024737;28;20038;-76
2022/06/09 00:32:22;;;;;;;10.50;4.20;;;15.10;99.90;;;;;;5025367;28;20057;-75
2022/06/09 00:34:47;;;;;;;8.02;4.63;;;15.10;99.90;;;;;;5025181;28;20090;-74
2022/06/09 00:37:13;;;;;;;12.32;5.40;;;15.10;99.90;;;;;;5025210;28;20077;-73
2022/06/09 00:39:39;;;;;;;9.90;4.93;;;15.00;99.90;;;;;;5025517;28;20113;-72
2022/06/09 00:42:05;;;;;;;15.02;4.70;;;15.10;99.90;;;;;;5024663;28;20616;-73
2022/06/09 00:44:31;;;;;;;8.82;4.45;;;15.10;99.90;;;;;;5025104;28;20046;-73
2022/06/09 00:47:23;;;;;;;9.77;4.70;;;15.10;99.90;;;;;;5024415;28;20041;-73
2022/06/09 00:49:59;;;;;;;7.82;4.60;;;15.10;99.90;;;;;;5007287;28;20040;-73
2022/06/09 00:52:29;;;;;;;8.85;4.35;;;15.00;99.90;;;;;;5024974;28;20053;-73
2022/06/09 00:55:01;;;;;;;8.27;4.85;;;15.10;99.90;;;;;;5024677;28;20053;-74
2022/06/09 00:57:38;;;;;;;10.20;4.70;;;14.90;99.90;;;;;;5024741;28;20038;-73
2022/06/09 01:00:12;;;;;;;10.70;5.22;;;15.00;99.90;;;;;;5024477;28;20089;-73
2022/06/09 01:02:38;;;;;;;8.30;4.50;;;15.00;99.90;;;;;;5006682;28;20034;-72
2022/06/09 01:05:05;;;;;;;12.30;6.05;;;15.10;99.90;;;;;;5024176;28;20045;-73
2022/06/09 01:07:47;;;;;;;13.00;5.25;;;15.00;99.90;;;;;;5024623;28;20606;-73
2022/06/09 01:10:15;;;;;;;16.08;6.13;;;15.00;99.90;;;;;;5024569;28;20033;-73
2022/06/09 01:12:46;;;;;;;12.73;5.70;;;15.10;99.90;;;;;;5024727;28;20378;-74
2022/06/09 01:15:18;;;;;;;14.20;6.07;;;15.10;99.90;;;;;;5006098;28;20061;-74
2022/06/09 01:17:51;;;;;;;16.90;6.07;;;15.10;99.90;;;;;;5024102;28;20046;-74
2022/06/09 01:20:43;;;;;;;14.27;6.93;;;15.10;99.90;;;;;;5024626;28;20033;-75
2022/06/09 01:23:28;;;;;;;15.15;6.45;;;15.10;99.90;;;;;;5021051;28;20037;-74
2022/06/09 01:26:15;;;;;;;14.88;6.50;;;15.20;99.90;;;;;;5021947;28;20038;-73
2022/06/09 01:28:56;;;;;;;18.70;7.25;;;15.20;99.90;;;;;;5024315;28;20132;-76
2022/06/09 01:31:35;;;;;;;16.00;6.38;;;15.20;99.90;;;;;;5005807;28;20025;-73
2022/06/09 01:34:10;;;;;;;9.88;6.28;;;15.20;99.90;;;;;;5023477;28;20048;-77
2022/06/09 01:36:38;;;;;;;;;;;15.20;99.90;;;;;;5024302;28;20037;-75
2022/06/09 01:39:05;;;;;;;17.13;7.45;;;15.20;99.90;;;;;;5024066;28;19909;-74
2022/06/09 01:41:32;;;;;;;13.77;7.40;;;15.20;99.90;;;;;;5022270;28;20429;-71
2022/06/09 01:43:59;;;;;;;15.30;6.63;;;15.20;99.90;;;;;;5022942;28;20105;-72
2022/06/09 01:46:33;;;;;;;15.85;8.18;;;15.20;99.90;;;;;;5022486;28;20050;-75
2022/06/09 01:49:10;;;;;;;17.40;8.10;;;15.20;99.90;;;;;;5023252;28;20041;-72
2022/06/09 01:51:40;;;;;;;21.75;7.95;;;15.20;99.90;;;;;;5023383;28;20869;-71
2022/06/09 01:54:15;;;;;;;19.63;8.88;;;15.20;99.90;;;;;;5022685;28;20030;-73
2022/06/09 01:56:51;;;;;;;21.48;7.82;;;15.20;99.90;;;;;;5023543;28;20113;-74
2022/06/09 01:59:29;;;;;;;21.33;9.10;;;15.20;99.90;;;;;;5023250;28;20021;-74
2022/06/09 02:02:04;;;;;;;22.00;8.70;;;15.30;99.90;;;;;;5023637;28;20040;-73
2022/06/09 02:04:44;;;;;;;17.92;7.78;;;15.30;99.90;;;;;;5023286;28;20033;-73
2022/06/09 02:07:12;;;;;;;17.15;9.20;;;15.20;99.90;;;;;;5020306;28;20034;-73
2022/06/09 02:09:38;;;;;;;18.10;8.45;;;15.20;99.90;;;;;;5022892;28;20030;-74
2022/06/09 02:12:10;;;;;;;19.15;9.13;;;15.30;99.90;;;;;;5022474;28;20029;-74
2022/06/09 02:14:38;;;;;;;20.20;9.68;;;15.20;99.90;;;;;;5023402;28;20036;-72
2022/06/09 02:17:08;;;;;;;16.40;8.10;;;15.20;99.90;;;;;;5022910;28;20128;-74
2022/06/09 02:19:43;;;;;;;22.20;8.68;;;15.20;99.90;;;;;;5022531;28;20034;-73
2022/06/09 02:22:12;;;;;;;39.58;9.70;;;15.20;99.90;;;;;;5022513;28;20040;-73
2022/06/09 02:24:38;;;;;;;19.38;7.70;;;15.30;99.90;;;;;;5004894;28;20042;-73
2022/06/09 02:27:05;;;;;;;24.35;8.60;;;15.10;99.90;;;;;;5021903;28;20018;-74
2022/06/09 02:29:31;;;;;;;18.67;8.48;;;15.10;99.90;;;;;;5023280;28;20089;-72
2022/06/09 02:31:57;;;;;;;13.82;7.70;;;15.10;99.90;;;;;;5022656;28;20072;-73
2022/06/09 02:34:22;;;;;;;19.95;8.93;;;15.10;99.90;;;;;;5021211;28;20056;-74
2022/06/09 02:36:48;;;;;;;15.98;8.82;;;15.10;99.90;;;;;;5023288;28;20383;-73
2022/06/09 02:39:15;;;;;;;13.48;7.45;;;15.10;99.90;;;;;;5023064;28;20029;-71
2022/06/09 02:41:41;;;;;;;16.63;8.48;;;15.10;99.90;;;;;;5022571;28;20037;-73
2022/06/09 02:44:07;;;;;;;19.00;8.05;;;15.10;99.90;;;;;;5021561;28;20810;-74
2022/06/09 02:46:32;;;;;;;17.02;8.55;;;14.90;99.90;;;;;;5004160;28;20030;-72
2022/06/09 02:48:58;;;;;;;20.10;8.77;;;15.00;99.90;;;;;;5022025;28;20026;-74
2022/06/09 02:51:32;;;;;;;19.35;8.00;;;15.00;99.90;;;;;;5005119;28;20053;-72
2022/06/09 02:54:01;;;;;;;17.17;8.87;;;15.00;99.90;;;;;;5022217;28;20121;-74
2022/06/09 02:56:27;;;;;;;24.83;8.10;;;15.00;99.90;;;;;;5020158;28;20260;-69
2022/06/09 02:58:53;;;;;;;18.10;8.82;;;15.00;99.90;;;;;;5022316;28;20022;-73
2022/06/09 03:01:19;;;;;;;18.23;9.48;;;15.00;99.90;;;;;;5004607;28;20037;-75
2022/06/09 03:03:45;;;;;;;24.73;10.10;;;15.00;99.90;;;;;;5022469;28;20022;-75
2022/06/09 03:06:10;;;;;;;22.38;8.70;;;15.00;99.90;;;;;;5022534;28;20462;-74
2022/06/09 03:08:36;;;;;;;18.92;8.73;;;15.00;99.90;;;;;;5022184;28;20022;-73
2022/06/09 03:11:02;;;;;;;22.00;9.73;;;15.00;99.90;;;;;;5004945;28;20034;-74
2022/06/09 03:13:28;;;;;;;27.27;10.85;;;15.00;99.90;;;;;;5021218;28;20030;-74
2022/06/09 03:15:54;;;;;;;13.75;7.72;;;15.00;99.90;;;;;;5021425;28;20022;-74
2022/06/09 03:18:20;;;;;;;34.33;11.18;;;15.00;99.90;;;;;;5022266;28;20026;-74
2022/06/09 03:20:50;;;;;;;24.75;10.20;;;15.10;99.90;;;;;;5004738;28;20113;-74
2022/06/09 03:23:16;;;;;;;19.17;8.73;;;15.10;99.90;;;;;;5002759;28;20118;-75
2022/06/09 03:25:43;;;;;;;19.85;9.63;;;15.10;99.90;;;;;;5022683;28;20483;-75
2022/06/09 03:28:10;;;;;;;20.75;8.65;;;15.10;99.90;;;;;;5004687;28;20615;-73
2022/06/09 03:30:36;;;;;;;22.85;9.85;;;15.20;99.90;;;;;;5021114;28;20044;-74
2022/06/09 03:33:02;;;;;;;22.25;9.43;;;15.10;99.90;;;;;;5022180;28;20085;-74
2022/06/09 03:35:29;;;;;;;23.65;8.98;;;15.10;99.90;;;;;;5021467;28;20041;-75
2022/06/09 03:37:56;;;;;;;19.20;8.70;;;15.10;99.90;;;;;;5021735;28;20022;-72
2022/06/09 03:40:28;;;;;;;17.27;8.43;;;15.20;99.90;;;;;;5021295;28;20089;-75
2022/06/09 03:42:55;;;;;;;20.05;9.23;;;15.10;99.90;;;;;;5003085;28;20018;-74
2022/06/09 03:45:21;;;;;;;22.73;9.52;;;15.20;99.90;;;;;;5019769;28;20042;-73
2022/06/09 03:47:48;;;;;;;18.55;8.23;;;15.20;99.90;;;;;;5021416;28;20091;-75
2022/06/09 03:50:24;;;;;;;16.20;7.93;;;15.10;99.90;;;;;;5020827;28;20026;-74
2022/06/09 03:52:51;;;;;;;21.88;8.65;;;15.20;99.90;;;;;;5019935;28;20041;-74
2022/06/09 03:55:18;;;;;;;16.63;8.63;;;15.10;99.90;;;;;;5021430;28;20068;-71
2022/06/09 03:57:44;;;;;;;23.70;8.88;;;15.20;99.90;;;;;;5023928;28;20092;-75
2022/06/09 04:00:16;;;;;;;19.25;7.82;;;15.20;99.90;;;;;;5026157;28;20522;-73
2022/06/09 04:02:41;;;;;;;20.25;8.25;;;15.20;99.90;;;;;;5025790;28;20026;-74
2022/06/09 04:05:07;;;;;;;17.13;7.57;;;15.20;99.90;;;;;;5025740;28;20030;-75
2022/06/09 04:07:33;;;;;;;20.20;8.93;;;15.20;99.90;;;;;;5025922;28;20033;-74
2022/06/09 04:09:58;;;;;;;17.77;7.25;;;15.20;99.90;;;;;;5025717;28;20040;-71
2022/06/09 04:12:24;;;;;;;18.90;8.00;;;15.20;99.90;;;;;;5025184;28;20029;-72
2022/06/09 04:14:51;;;;;;;22.85;9.73;;;15.20;99.90;;;;;;5025830;28;20026;-72
2022/06/09 04:17:20;;;;;;;17.05;9.05;;;15.20;99.90;;;;;;5024946;28;20163;-73
2022/06/09 04:19:45;;;;;;;17.05;8.02;;;15.20;99.90;;;;;;5007652;28;20072;-71
2022/06/09 04:22:12;;;;;;;21.88;8.30;;;15.20;99.90;;;;;;5025963;28;20549;-73
2022/06/09 04:24:38;;;;;;;24.38;8.98;;;15.20;99.90;;;;;;5025588;28;20030;-73
2022/06/09 04:27:04;;;;;;;24.27;9.30;;;15.30;99.90;;;;;;5007775;28;20018;-73
2022/06/09 04:29:30;;;;;;;15.57;7.50;;;15.20;99.90;;;;;;5025795;28;20065;-73
2022/06/09 04:31:55;;;;;;;24.30;10.23;;;15.20;99.90;;;;;;5025110;28;20026;-73
2022/06/09 04:34:21;;;;;;;17.65;9.15;;;15.20;99.90;;;;;;5007644;28;20048;-73
2022/06/09 04:36:46;;;;;;;22.15;8.13;;;15.30;99.90;;;;;;5007838;28;20533;-74
2022/06/09 04:39:12;;;;;;;22.25;8.52;;;15.30;99.90;;;;;;5024709;28;20022;-71
2022/06/09 04:41:38;;;;;;;28.17;9.70;;;15.30;99.90;;;;;;5025464;28;20633;-73
2022/06/09 04:44:05;;;;;;;18.33;9.45;;;15.30;99.90;;;;;;5007079;28;20120;-73
2022/06/09 04:46:32;;;;;;;23.48;8.82;;;15.40;99.90;;;;;;5024144;28;20033;-70
2022/06/09 04:48:58;;;;;;;23.83;8.35;;;15.40;99.90;;;;;;5023482;28;20022;-72
2022/06/09 04:51:26;;;;;;;18.33;9.23;;;15.40;99.90;;;;;;5021736;28;20026;-74
2022/06/09 04:53:52;;;;;;;22.05;8.50;;;15.30;99.90;;;;;;5006376;28;20028;-72
2022/06/09 04:56:19;;;;;;;20.38;8.75;;;15.40;99.90;;;;;;5023980;28;20041;-74
2022/06/09 04:58:48;;;;;;;22.15;8.55;;;15.40;99.90;;;;;;5025071;28;20014;-74
2022/06/09 05:01:19;;;;;;;14.90;8.32;;;15.40;99.90;;;;;;5024469;28;20022;-75
2022/06/09 05:03:47;;;;;;;18.80;8.52;;;15.40;99.90;;;;;;5023928;28;20030;-74
2022/06/09 05:06:13;;;;;;;18.30;8.10;;;15.40;99.90;;;;;;5024388;28;20390;-74
2022/06/09 05:08:40;;;;;;;21.05;8.90;;;15.40;99.90;;;;;;5023495;28;20569;-75
2022/06/09 05:11:06;;;;;;;20.70;8.57;;;15.30;99.90;;;;;;5024628;28;20053;-75
2022/06/09 05:13:31;;;;;;;20.60;8.85;;;15.40;99.90;;;;;;5023907;28;20018;-75
2022/06/09 05:15:57;;;;;;;17.48;7.97;;;15.40;99.90;;;;;;5005659;28;20057;-74
2022/06/09 05:18:25;;;;;;;18.30;7.43;;;15.30;99.90;;;;;;5024545;28;20029;-74
2022/06/09 05:20:52;;;;;;;16.58;7.70;;;15.40;99.90;;;;;;5024078;28;20041;-74
2022/06/09 05:23:18;;;;;;;16.88;7.70;;;15.40;99.90;;;;;;5024183;28;20050;-74
2022/06/09 05:25:46;;;;;;;13.45;7.03;;;15.40;99.90;;;;;;5024388;28;20055;-73
2022/06/09 05:28:11;;;;;;;14.60;6.15;;;15.40;99.90;;;;;;5022446;28;20036;-70
2022/06/09 05:30:37;;;;;;;12.93;6.65;;;15.40;99.90;;;;;;5021270;28;20456;-74
2022/06/09 05:33:03;;;;;;;14.00;7.38;;;15.40;99.90;;;;;;5022949;28;20041;-75
2022/06/09 05:35:29;;;;;;;10.35;5.60;;;15.40;99.90;;;;;;5022624;28;20033;-78
2022/06/09 05:46:09;;;;;;;12.23;5.43;;;15.40;99.90;;;;;;5024328;28;20044;-72
2022/06/09 05:48:35;;;;;;;14.77;4.63;;;15.40;99.90;;;;;;5023931;28;20526;-72
2022/06/09 05:51:01;;;;;;;8.55;4.85;;;15.40;99.90;;;;;;5023376;28;20474;-72
2022/06/09 05:53:26;;;;;;;12.98;5.07;;;15.40;99.90;;;;;;5023370;28;20038;-73
2022/06/09 05:55:58;;;;;;;11.60;5.22;;;15.40;99.90;;;;;;5022068;28;20033;-77
2022/06/09 05:58:25;;;;;;;6.93;4.45;;;15.40;99.90;;;;;;5021630;28;20095;-70
2022/06/09 06:00:52;;;;;;;14.93;4.35;;;15.40;99.90;;;;;;5017652;28;20049;-74
2022/06/09 06:03:18;;;;;;;11.27;4.53;;;15.40;99.90;;;;;;5019776;28;20033;-76
2022/06/09 06:08:27;;;;;;;16.40;5.25;;;15.40;99.90;;;;;;5022963;28;20068;-73
2022/06/09 06:10:53;;;;;;;19.73;5.18;;;15.30;99.90;;;;;;5022129;28;20030;-75
2022/06/09 06:13:20;;;;;;;6.07;3.67;;;15.40;99.90;;;;;;5021249;28;20025;-75
2022/06/09 06:15:47;;;;;;;8.55;4.68;;;15.50;99.90;;;;;;5021589;28;20805;-75
2022/06/09 06:18:12;;;;;;;10.90;3.92;;;15.60;99.90;;;;;;5003772;28;20046;-75
2022/06/09 06:20:38;;;;;;;10.07;4.03;;;15.60;99.90;;;;;;5003698;28;20026;-76
2022/06/09 06:23:03;;;;;;;8.23;4.50;;;15.70;99.90;;;;;;5003550;28;20569;-75
2022/06/09 06:25:29;;;;;;;8.13;3.97;;;15.70;99.90;;;;;;5002246;28;20042;-74
2022/06/09 06:27:55;;;;;;;8.73;4.38;;;15.70;99.90;;;;;;5002216;28;20110;-81
2022/06/09 06:30:25;;;;;;;9.02;3.53;;;15.80;99.90;;;;;;5003382;28;20038;-74
2022/06/09 06:32:51;;;;;;;6.68;3.85;;;15.80;99.90;;;;;;5001694;28;20022;-75
2022/06/09 06:35:17;;;;;;;6.72;3.35;;;15.80;99.90;;;;;;5002168;28;20094;-76
2022/06/09 06:37:43;;;;;;;8.60;3.95;;;15.80;99.90;;;;;;5003479;28;20022;-75
2022/06/09 06:40:11;;;;;;;14.00;4.53;;;15.90;99.90;;;;;;5001859;28;20022;-76
2022/06/09 06:42:36;;;;;;;7.88;4.20;;;15.90;99.90;;;;;;5003359;28;20039;-79
2022/06/09 06:45:03;;;;;;;12.18;5.47;;;15.90;99.90;;;;;;5001263;28;20042;-79
2022/06/09 06:47:29;;;;;;;11.90;4.55;;;15.80;99.90;;;;;;5002625;28;20113;-75
2022/06/09 06:49:55;;;;;;;12.65;4.90;;;15.70;99.90;;;;;;5001848;28;20391;-75
2022/06/09 06:52:22;;;;;;;25.40;5.28;;;15.70;99.90;;;;;;5002212;28;20113;-78
2022/06/09 06:54:48;;;;;;;12.15;5.03;;;15.70;99.90;;;;;;5000485;28;20066;-75
2022/06/09 06:57:15;;;;;;;17.65;5.72;;;15.50;99.90;;;;;;5001495;28;20042;-76
2022/06/09 06:59:41;;;;;;;13.15;5.18;;;15.60;99.90;;;;;;4999013;28;20114;-75
2022/06/09 07:02:09;;;;;;;11.65;4.75;;;15.50;99.90;;;;;;5001772;28;20030;-76
2022/06/09 07:04:34;;;;;;;12.55;5.30;;;15.60;99.90;;;;;;5000940;28;20054;-75
2022/06/09 07:07:00;;;;;;;7.28;4.20;;;15.60;99.90;;;;;;5002846;28;20026;-74
2022/06/09 07:09:26;;;;;;;18.73;5.43;;;15.60;99.90;;;;;;5005293;28;20032;-76
2022/06/09 07:11:51;;;;;;;12.45;5.68;;;15.60;99.90;;;;;;5002452;28;20026;-76
2022/06/09 07:14:17;;;;;;;13.15;5.25;;;15.70;99.90;;;;;;5002822;28;20022;-75
2022/06/09 07:16:42;;;;;;;7.60;3.95;;;15.80;99.90;;;;;;5007934;28;20088;-77
2022/06/09 07:19:08;;;;;;;8.43;4.45;;;15.90;99.90;;;;;;5004073;28;20056;-74
2022/06/09 07:21:34;;;;;;;14.13;4.88;;;16.10;99.90;;;;;;5002723;28;20034;-75
2022/06/09 07:23:59;;;;;;;9.15;4.78;;;16.20;99.90;;;;;;5022038;28;20072;-76
2022/06/09 07:26:25;;;;;;;17.63;5.38;;;16.40;99.90;;;;;;5020974;28;20044;-75
2022/06/09 07:28:51;;;;;;;12.48;4.25;;;16.40;99.90;;;;;;5022205;28;20109;-74
2022/06/09 07:31:17;;;;;;;7.88;4.57;;;16.50;99.90;;;;;;5004147;28;20062;-75
2022/06/09 07:33:43;;;;;;;13.30;4.45;;;16.40;99.90;;;;;;5004334;28;20037;-76
2022/06/09 07:36:14;;;;;;;10.82;5.00;;;16.50;99.90;;;;;;5022164;28;20033;-75
2022/06/09 07:38:40;;;;;;;11.82;4.85;;;16.50;99.90;;;;;;5021441;28;20057;-74
2022/06/09 07:41:07;;;;;;;7.45;4.70;;;16.50;99.90;;;;;;5018323;28;20044;-73
2022/06/09 07:43:33;;;;;;;13.15;4.95;;;16.40;99.90;;;;;;5021240;28;20026;-72
2022/06/09 07:45:59;;;;;;;11.35;4.55;;;16.50;99.90;;;;;;5020526;28;20046;-74
2022/06/09 07:48:25;;;;;;;11.48;4.97;;;16.50;99.90;;;;;;5004332;28;20022;-74
2022/06/09 07:50:56;;;;;;;13.30;5.15;;;16.50;99.90;;;;;;5020100;28;20026;-72
2022/06/09 07:53:23;;;;;;;11.30;5.03;;;16.50;99.90;;;;;;5018912;28;20064;-74
2022/06/09 07:55:50;;;;;;;19.20;4.65;;;16.60;99.90;;;;;;5020485;28;20026;-77
2022/06/09 07:58:18;;;;;;;13.65;5.35;;;16.70;99.90;;;;;;5021356;28;20038;-72
2022/06/09 08:00:45;;;;;;;12.23;4.93;;;16.60;99.90;;;;;;5018985;28;20041;-73
2022/06/09 08:03:17;;;;;;;11.95;4.93;;;16.60;99.90;;;;;;5019620;28;20041;-70
2022/06/09 08:05:43;;;;;;;15.45;5.35;;;16.60;99.90;;;;;;5019304;28;20029;-74
2022/06/09 08:08:08;;;;;;;15.63;6.03;;;16.60;99.90;;;;;;5019406;28;20038;-73
2022/06/09 08:10:36;;;;;;;7.78;4.28;;;16.60;99.90;;;;;;5020568;28;20037;-72
2022/06/09 08:13:03;;;;;;;15.27;4.35;;;16.70;99.90;;;;;;5021284;28;20014;-72
2022/06/09 08:15:30;;;;;;;14.27;5.05;;;16.60;99.90;;;;;;5020226;28;20117;-74
2022/06/09 08:17:57;;;;;;;7.75;4.70;;;16.60;99.90;;;;;;5019605;28;20073;-72
2022/06/09 08:20:30;;;;;;;16.00;5.22;;;16.60;99.90;;;;;;5020600;28;20048;-75
2022/06/09 08:23:08;;;;;;;9.70;4.53;;;16.70;99.90;;;;;;5018610;28;20034;-72
2022/06/09 08:25:34;;;;;;;11.15;5.10;;;16.70;99.90;;;;;;5003835;28;20482;-73
2022/06/09 08:28:00;;;;;;;14.32;5.88;;;16.70;99.90;;;;;;5020635;28;20030;-72
2022/06/09 08:30:26;;;;;;;12.65;5.03;;;16.80;99.90;;;;;;5020133;28;20033;-71
2022/06/09 08:32:52;;;;;;;11.75;4.72;;;16.60;99.90;;;;;;5012605;28;20077;-73
2022/06/09 08:35:18;;;;;;;8.98;4.95;;;16.80;99.90;;;;;;5008377;28;20040;-70
2022/06/09 08:37:48;;;;;;;15.18;4.78;;;16.80;99.90;;;;;;4994798;28;20116;-68
2022/06/09 08:40:44;;;;;;;8.90;4.80;;;16.90;99.90;;;;;;5011861;28;20080;-72
2022/06/09 08:43:32;;;;;;;11.00;5.25;;;16.90;99.90;;;;;;5014936;28;20034;-72
2022/06/09 08:46:19;;;;;;;13.13;5.30;;;17.00;99.90;;;;;;5024808;28;20042;-71
2022/06/09 08:48:46;;;;;;;9.27;4.38;;;17.00;99.90;;;;;;5024660;28;20045;-69
2022/06/09 08:51:24;;;;;;;10.18;5.68;;;17.00;99.90;;;;;;5024812;28;20022;-73
2022/06/09 08:53:57;;;;;;;8.60;5.07;;;17.00;99.90;;;;;;5024438;28;20021;-76
2022/06/09 08:56:33;;;;;;;9.02;4.00;;;17.00;99.90;;;;;;5022649;28;20398;-71
2022/06/09 08:59:03;;;;;;;13.70;4.85;;;17.10;99.90;;;;;;5020484;28;20078;-73
2022/06/09 09:01:41;;;;;;;11.52;5.35;;;17.20;99.90;;;;;;5022488;28;20056;-75
2022/06/09 09:04:22;;;;;;;11.75;5.65;;;17.20;99.90;;;;;;5023838;28;20401;-74
2022/06/09 09:06:56;;;;;;;10.35;4.40;;;17.20;99.90;;;;;;5024369;28;20536;-72
2022/06/09 09:09:30;;;;;;;23.67;6.05;;;17.20;99.90;;;;;;5024673;28;20026;-71
2022/06/09 09:12:03;;;;;;;9.38;4.53;;;17.30;99.90;;;;;;5024187;28;20060;-73
2022/06/09 09:14:39;;;;;;;6.47;4.20;;;17.40;99.90;;;;;;5023979;28;20034;-73
2022/06/09 09:17:22;;;;;;;11.40;4.57;;;17.60;99.90;;;;;;5024287;28;20065;-72
2022/06/09 09:19:57;;;;;;;13.65;5.13;;;17.70;99.90;;;;;;5024818;28;20018;-73
2022/06/09 09:22:56;;;;;;;6.65;4.35;;;17.80;99.90;;;;;;5006699;28;20065;-72
2022/06/09 09:25:51;;;;;;;13.85;5.03;;;17.80;99.90;;;;;;5023973;28;20403;-73
2022/06/09 09:28:22;;;;;;;20.75;5.80;;;17.80;99.90;;;;;;5005160;28;20521;-73
2022/06/09 09:31:25;;;;;;;9.98;5.00;;;18.00;99.90;;;;;;5021742;28;20122;-71
2022/06/09 09:33:51;;;;;;;13.32;4.80;;;18.10;99.90;;;;;;5014857;28;20038;-75
2022/06/09 09:36:25;;;;;;;9.75;5.18;;;18.10;99.90;;;;;;5013093;28;20033;-74
2022/06/09 09:39:02;;;;;;;10.25;4.40;;;18.10;99.90;;;;;;4999379;28;20088;-70
2022/06/09 09:41:34;;;;;;;9.50;5.03;;;18.00;99.90;;;;;;5016179;28;20040;-73
2022/06/09 09:44:22;;;;;;;8.15;4.97;;;18.00;99.90;;;;;;5023756;28;20029;-73
2022/06/09 09:46:54;;;;;;;14.07;6.00;;;18.00;99.90;;;;;;5023927;28;20033;-71
2022/06/09 09:49:24;;;;;;;11.25;4.80;;;18.10;99.90;;;;;;5022256;28;20022;-73
2022/06/09 09:51:51;;;;;;;8.18;3.92;;;18.30;99.90;;;;;;5022657;28;20029;-73
2022/06/09 09:54:27;;;;;;;12.70;5.35;;;18.40;99.90;;;;;;5022880;28;20033;-70
2022/06/09 09:57:06;;;;;;;7.75;4.43;;;18.50;99.90;;;;;;5023449;28;20502;-73
2022/06/09 09:59:51;;;;;;;12.45;4.90;;;18.70;99.90;;;;;;5022816;28;20030;-71
2022/06/09 10:08:37;;;;;;;8.93;3.85;;;18.70;99.90;;;;;;5022510;28;20037;-70
2022/06/09 10:11:53;;;;;;;14.45;5.32;;;18.60;99.90;;;;;;5022260;28;20026;-73
2022/06/09 10:13:53;;;;;;;11.65;5.35;;;18.40;99.90;;;;;;5022422;28;20053;-75
2022/06/09 10:16:21;;;;;;;9.77;4.47;;;18.50;99.90;;;;;;5023122;28;20049;-77
2022/06/09 10:18:53;;;;;;;18.10;5.80;;;18.60;99.90;;;;;;5023807;28;20033;-69
2022/06/09 10:21:18;;;;;;;6.43;3.80;;;18.70;99.90;;;;;;5023450;28;20022;-70
2022/06/09 10:23:56;;;;;;;9.88;4.93;;;18.90;99.90;;;;;;5022634;28;20025;-72
2022/06/09 10:26:30;;;;;;;9.32;4.45;;;19.00;99.90;;;;;;5023549;28;20060;-70
2022/06/09 10:29:05;;;;;;;;;;;19.00;99.90;;;;;;5023401;28;20034;-69
2022/06/09 10:31:33;;;;;;;10.60;4.55;;;19.00;99.90;;;;;;5023453;28;19906;-71
2022/06/09 10:34:13;;;;;;;11.27;4.78;;;19.10;99.90;;;;;;5023150;28;20461;-70
2022/06/09 10:37:13;;;;;;;8.32;4.25;;;18.90;99.90;;;;;;5023106;28;20037;-70
2022/06/09 10:39:53;;;;;;;5.45;3.50;;;19.00;99.90;;;;;;5022076;28;21090;-68
2022/06/09 10:42:44;;;;;;;7.20;4.10;;;19.20;99.90;;;;;;5022548;28;20030;-75
2022/06/09 10:45:22;;;;;;;8.73;4.20;;;19.50;99.90;;;;;;5022826;28;20064;-67
2022/06/09 10:56:33;;;;;;;5.80;3.20;;;20.20;99.90;;;;;;5022894;28;20032;-76
2022/06/09 10:59:07;;;;;;;5.43;3.10;;;20.30;99.90;;;;;;5022611;28;20072;-72
2022/06/09 11:01:33;;;;;;;;;;;20.30;99.90;;;;;;5021695;28;20261;-71
2022/06/09 11:04:01;;;;;;;10.60;3.13;;;20.10;99.90;;;;;;5021965;28;20000;-70
2022/06/09 11:06:54;;;;;;;7.13;3.38;;;19.80;99.90;;;;;;5021504;28;20046;-72
2022/06/09 11:09:56;;;;;;;7.40;2.38;;;19.70;99.90;;;;;;5022874;28;20486;-73
2022/06/09 11:12:41;;;;;;;3.70;2.10;;;19.40;99.90;;;;;;5022628;28;20072;-70
2022/06/09 11:15:21;;;;;;;5.45;2.38;;;19.60;99.90;;;;;;5022273;28;20030;-70
2022/06/09 11:18:25;;;;;;;6.10;2.42;;;20.00;99.90;;;;;;5021894;28;20057;-71
2022/06/09 11:20:54;;;;;;;11.23;3.03;;;20.40;99.90;;;;;;4914152;29;20043;-71
2022/06/09 11:23:34;;;;;;;2.88;2.00;;;20.80;99.90;;;;;;4914921;29;20095;-69
2022/06/09 11:26:11;;;;;;;5.60;2.22;;;21.00;99.90;;;;;;4980236;28;20065;-73
2022/06/09 11:29:01;;;;;;;4.10;1.92;;;21.30;99.90;;;;;;5022847;28;20105;-69
2022/06/09 11:31:57;;;;;;;2.78;1.95;;;21.40;99.90;;;;;;5020854;28;20029;-71
2022/06/09 11:34:45;;;;;;;2.70;1.83;;;21.20;99.90;;;;;;5021182;28;20030;-72
2022/06/09 11:37:29;;;;;;;4.05;2.10;;;21.00;99.90;;;;;;5021891;28;20063;-73
2022/06/09 11:40:33;;;;;;;6.18;1.75;;;21.00;99.90;;;;;;5021966;28;20033;-72
2022/06/09 11:43:49;;;;;;;1.85;1.45;;;21.20;99.90;;;;;;5020620;28;20034;-69
2022/06/09 11:46:28;;;;;;;2.40;1.60;;;21.20;99.90;;;;;;4921159;29;20070;-70
2022/06/09 11:49:01;;;;;;;4.50;1.92;;;21.00;99.90;;;;;;4922252;29;20553;-74
2022/06/09 11:51:29;;;;;;;2.05;1.40;;;20.80;99.90;;;;;;4991210;28;20060;-73
2022/06/09 11:54:02;;;;;;;2.58;1.20;;;20.80;99.90;;;;;;5021479;28;20033;-74
2022/06/09 11:56:45;;;;;;;2.63;1.35;;;20.70;99.90;;;;;;5021865;28;20022;-70
2022/06/09 11:59:17;;;;;;;3.10;1.48;;;20.70;99.90;;;;;;5021569;28;20478;-72
2022/06/09 12:01:46;;;;;;;4.03;1.83;;;20.90;99.90;;;;;;5022137;28;20125;-70
2022/06/09 12:04:39;;;;;;;2.60;1.65;;;21.00;99.90;;;;;;5021999;28;20077;-74
2022/06/09 12:07:15;;;;;;;4.15;1.75;;;21.00;99.90;;;;;;5013255;28;20046;-70
2022/06/09 12:09:51;;;;;;;2.33;1.60;;;20.90;99.90;;;;;;5021522;28;20061;-69
2022/06/09 12:12:40;;;;;;;3.80;1.90;;;20.80;99.90;;;;;;5022033;28;20100;-71
2022/06/09 12:15:13;;;;;;;3.42;1.45;;;20.70;99.90;;;;;;5021620;28;20026;-69
2022/06/09 12:17:56;;;;;;;2.95;1.60;;;20.60;99.90;;;;;;5000947;28;20466;-68
2022/06/09 12:20:45;;;;;;;3.63;1.55;;;20.60;99.90;;;;;;5004916;28;20026;-71
2022/06/09 12:23:38;;;;;;;2.33;1.35;;;20.50;99.90;;;;;;5005480;28;20447;-73
2022/06/09 12:26:09;;;;;;;3.80;1.85;;;20.50;99.90;;;;;;5005281;28;20030;-69
2022/06/09 12:28:52;;;;;;;3.45;1.17;;;20.80;99.90;;;;;;5005401;28;20027;-71
2022/06/09 12:31:21;;;;;;;3.67;1.30;;;21.00;99.90;;;;;;5005382;28;20030;-71
2022/06/09 12:34:12;;;;;;;3.22;1.20;;;20.90;99.90;;;;;;5005603;28;20030;-71
2022/06/09 12:36:58;;;;;;;4.32;0.77;;;20.90;99.90;;;;;;5005440;28;20030;-72
2022/06/09 12:39:38;;;;;;;0.80;0.50;;;21.30;99.90;;;;;;5005411;28;20026;-68
2022/06/09 12:42:15;;;;;;;1.10;0.50;;;21.80;99.90;;;;;;5006005;28;20034;-71
2022/06/09 12:44:49;;;;;;;0.95;0.43;;;22.10;99.90;;;;;;5005293;28;20042;-69
2022/06/09 12:47:24;;;;;;;1.02;0.47;;;22.00;99.90;;;;;;5005241;28;20038;-72
2022/06/09 12:49:59;;;;;;;1.48;0.50;;;21.80;99.90;;;;;;5004851;28;20098;-67
2022/06/09 12:52:38;;;;;;;0.50;0.40;;;21.40;99.90;;;;;;5005660;28;20041;-68
2022/06/09 12:55:19;;;;;;;0.80;0.55;;;21.20;99.90;;;;;;5005506;28;20046;-70
2022/06/09 12:57:52;;;;;;;1.15;0.40;;;21.00;99.90;;;;;;5005684;28;20030;-69
2022/06/09 13:00:24;;;;;;;2.50;0.50;;;20.90;99.90;;;;;;5005443;28;20467;-72
2022/06/09 13:02:50;;;;;;;3.42;0.47;;;20.90;99.90;;;;;;5005864;28;20541;-70
2022/06/09 13:05:24;;;;;;;2.47;0.77;;;20.90;99.90;;;;;;5003940;28;20050;-69
2022/06/09 13:07:53;;;;;;;0.80;0.45;;;21.00;99.90;;;;;;5005189;28;20038;-75
2022/06/09 13:10:30;;;;;;;0.32;0.20;;;21.00;99.90;;;;;;5005172;28;20025;-73
2022/06/09 13:13:13;;;;;;;1.05;0.52;;;21.60;99.90;;;;;;5004438;28;20041;-69
2022/06/09 13:16:02;;;;;;;0.95;0.50;;;22.20;99.90;;;;;;5005058;28;20038;-68
2022/06/09 13:18:41;;;;;;;4.88;0.65;;;22.60;99.90;;;;;;5004587;28;20053;-73
2022/06/09 13:21:16;;;;;;;2.45;0.60;;;22.80;99.90;;;;;;5005342;28;20081;-71
2022/06/09 13:23:45;;;;;;;2.17;0.68;;;22.90;99.90;;;;;;5005428;28;20098;-71
2022/06/09 13:26:20;;;;;;;4.20;0.45;;;23.10;99.90;;;;;;5005108;28;20042;-72
2022/06/09 13:28:53;;;;;;;2.80;0.60;;;23.20;99.90;;;;;;5004660;28;20125;-68